This is the latest recevied weather packets stored in our database for station/object EA5JUX. If no packets are shown the sender has not sent any weather packets the latest 10 day(s).
| Time | Temp. | Humidity | Pressure | Rain* | Wind** | Luminosity | Snow |
|---|---|---|---|---|---|---|---|
| 1778072238 | 21.11° C | 70% | 1010.1 hPa | 0 mm | - | - | - |
| 1778071937 | 21.11° C | 69% | 1009.9 hPa | 0 mm | - | - | - |
| 1778071637 | 21.11° C | 69% | 1010.1 hPa | 0 mm | - | - | - |
| 1778071351 | 21.11° C | 70% | 1010.3 hPa | 0 mm | - | - | - |
| 1778071059 | 21.11° C | 70% | 1010.3 hPa | 0 mm | - | - | - |
| 1778070737 | 20.56° C | 72% | 1010.1 hPa | 0 mm | - | - | - |
| 1778070437 | 21.11° C | 71% | 1009.9 hPa | 0 mm | - | - | - |
| 1778070137 | 21.11° C | 71% | 1010.1 hPa | 0 mm | - | - | - |
| 1778069837 | 20.56° C | 71% | 1010.2 hPa | 0 mm | - | - | - |
| 1778069537 | 21.11° C | 70% | 1010.4 hPa | 0 mm | - | - | - |
| 1778069237 | 20.56° C | 71% | 1010.5 hPa | 0 mm | - | - | - |
| 1778068937 | 21.11° C | 72% | 1010.4 hPa | 0 mm | - | - | - |
| 1778068659 | 21.11° C | 70% | 1010.4 hPa | 0 mm | - | - | - |
| 1778068337 | 21.11° C | 72% | 1010.4 hPa | 0 mm | - | - | - |
| 1778068057 | 20.56° C | 73% | 1010.2 hPa | 0 mm | - | - | - |
| 1778067737 | 20.56° C | 74% | 1010.5 hPa | 0 mm | - | - | - |
| 1778067437 | 20° C | 75% | 1010.4 hPa | 0 mm | - | - | - |
| 1778067137 | 20.56° C | 73% | 1010.4 hPa | 0 mm | - | - | - |
| 1778066837 | 21.67° C | 70% | 1010.5 hPa | 0 mm | - | - | - |
| 1778066537 | 21.67° C | 70% | 1010.5 hPa | 0 mm | - | - | - |
| 1778066238 | 21.11° C | 70% | 1010.5 hPa | 0 mm | - | - | - |
| 1778065946 | 21.11° C | 71% | 1010.3 hPa | 0 mm | - | - | - |
| 1778065637 | 21.67° C | 72% | 1010.3 hPa | 0 mm | - | - | - |
| 1778065337 | 21.11° C | 73% | 1010.5 hPa | 0 mm | - | - | - |
| 1778065037 | 21.11° C | 72% | 1010.3 hPa | 0 mm | - | - | - |
* Rain latest hour (hover to see other rain measurements)
** Current wind speed in m/s (hover to see current wind gust speed)